Relevés horaires Grono (Suisse)


Relevés horaires à Grono - Mardi 11 Sept. 2018
Heure UTC1 Température [°C] Vent [km/h] Hum. [%] Pres.4 [hPa] Visi. [Km] Nébu. [octa] Préc.5 [mm] Cond.
2m. Res. Ros. Dir.2 Vit. Moy. Raf.3
23:00 17.0 17.0 16.0 N 5.6 -- -- 94 1026.1 -- -- -- --
22:00 17.8 17.8 16.6 NNO 5.6 -- -- 93 1025.7 -- -- -- --
21:00 18.0 18.0 16.7 N 3.7 -- 9.3 92 1025.3(1.4/3h) -- -- -- --
20:00 18.7 18.7 17.2 N 5.6 -- -- 91 1025.1 -- -- -- --
19:00 19.3 19.3 17.4 N 3.7 -- -- 89 1024.4 -- -- -- --
18:00 21.0 21.0 18.0 NNO 1.9 -- 16.7 83 1023.4(0.6/3h) -- -- 0/12h
--
17:00 23.5 23.5 18.3 N 7.4 -- -- 73 1022.7 -- -- -- --
16:00 27.9 27.9 17.1 S 7.4 -- -- 52 1021.8 -- -- -- --
15:00 28.4 28.4 17.2 S 7.4 -- 16.7 51 1021.8(-1.5/3h) -- -- -- --
14:00 28.2 28.2 16.4 S 9.3 -- -- 49 1022.2 -- -- -- --
13:00 27.9 27.9 15.6 S 7.4 -- -- 47 1022.9 -- -- -- --
12:00 26.9 26.9 13.1 SSO 7.4 -- 13.0 43 1023.5(-1.3/3h) -- -- 0/6h
--
11:00 25.1 25.1 12.1 SSE 3.7 -- -- 44 1024.4 -- -- -- --
10:00 23.7 23.7 10.4 NNE 1.9 -- -- 43 1024.9 -- -- -- --
09:00 19.7 19.7 13.7 NNO 0.0 -- 13.0 68 1025.9(0.2/3h) -- -- -- --
08:00 14.3 14.2 12.3 N 7.4 -- -- 88 1026.7 -- -- -- --
07:00 14.0 13.8 11.9 N 7.4 -- -- 87 1026.7 -- -- -- --
06:00 14.0 13.5 12.2 N 9.3 -- 13.0 89 1026.5(1.0/3h) -- -- 0/12h
0/24h
--
05:00 13.8 13.3 12.4 N 9.3 -- -- 91 1025.9 -- -- -- --
04:00 14.3 14.3 12.4 N 5.6 -- -- 88 1025.6 -- -- -- --
03:00 14.3 13.9 12.8 N 9.3 -- 13.0 91 1025.4(0.3/3h) -- -- -- --
02:00 15.3 15.3 13.3 N 5.6 -- -- 88 1025.1 -- -- -- --
01:00 15.5 15.5 13.9 N 7.4 -- -- 90 1025 -- -- -- --
00:00 16.2 16.1 14.6 N 9.3 -- 13.0 90 1024.8(0.6/3h) -- -- 0/6h
--

1 Coordinated Universal Time. Actuellement il est 19:00 locale et 17:00 UTC.

2 Le vent souffle depuis la direction indiquée vers la direction oposée.

3 Les rafales max. sont disponible 40 min après l'heure du relevé.

4 Pour les stations d'altitude (plus de 600m) le géopotentiel du niveau le plus proche de la pression obligatoire est indiqué.

5 Les stations disposant d'un diffuseur peuvent indiquer "trace". Cela signifie que des précipitations ont touchés le sol mais que la quantité est inférieure à 0.1 mm.

Récapitulatif de la journée
Température [°C] Vent [km/h] Ensoleillement4 [h] Precipitations totale5 [mm] Pression [Hpa]
Min1 Max.2 Moy.3 Max. Min Max.
13.5 28.4 0 16.7 8 h 18 min 0 1021.8 1026.7

1 Température minimale relevée entre 18:00 UTC la veille et 18:00 UTC le jour donné.

2 Température maximale relevée entre 06:00 UTC le jour donné et 06:00 UTC le lendemain.

3 Vent moyen de la journée basé sur les relevés horaires.

4 Ensoleillement en heures relevé entre 06:00 UTC la veille et 06:00 UTC le jour donné.

5 Précipitations totales tombées entre 06:00 UTC la jour donné et 06:00 UTC le lendemain.

Graphiques horaires